sensor_id;sensor_type;location;lat;lon;timestamp;P1;durP1;ratioP1;P2;durP2;ratioP2
15624;SDS011;7912;51.376;6.126;2023-10-19T00:01:16;8.57;;;7.70;;
15624;SDS011;7912;51.376;6.126;2023-10-19T00:03:45;8.40;;;7.33;;
15624;SDS011;7912;51.376;6.126;2023-10-19T00:06:12;8.33;;;7.53;;
15624;SDS011;7912;51.376;6.126;2023-10-19T00:08:40;8.40;;;7.60;;
15624;SDS011;7912;51.376;6.126;2023-10-19T00:11:08;9.83;;;7.57;;
15624;SDS011;7912;51.376;6.126;2023-10-19T00:13:38;8.03;;;7.27;;
15624;SDS011;7912;51.376;6.126;2023-10-19T00:16:09;8.30;;;7.53;;
15624;SDS011;7912;51.376;6.126;2023-10-19T00:18:49;9.90;;;8.10;;
15624;SDS011;7912;51.376;6.126;2023-10-19T00:21:19;8.40;;;7.60;;
15624;SDS011;7912;51.376;6.126;2023-10-19T00:23:54;8.17;;;7.10;;
15624;SDS011;7912;51.376;6.126;2023-10-19T00:26:25;9.00;;;8.07;;
15624;SDS011;7912;51.376;6.126;2023-10-19T00:28:55;8.37;;;7.57;;
15624;SDS011;7912;51.376;6.126;2023-10-19T00:31:27;8.70;;;7.70;;
15624;SDS011;7912;51.376;6.126;2023-10-19T00:33:55;8.50;;;7.67;;
15624;SDS011;7912;51.376;6.126;2023-10-19T00:36:23;7.57;;;6.87;;
15624;SDS011;7912;51.376;6.126;2023-10-19T00:38:52;8.47;;;7.57;;
15624;SDS011;7912;51.376;6.126;2023-10-19T00:41:21;8.43;;;7.60;;
15624;SDS011;7912;51.376;6.126;2023-10-19T00:43:56;8.70;;;7.00;;
15624;SDS011;7912;51.376;6.126;2023-10-19T00:46:38;7.67;;;6.97;;
15624;SDS011;7912;51.376;6.126;2023-10-19T00:49:09;7.83;;;7.07;;
15624;SDS011;7912;51.376;6.126;2023-10-19T00:51:43;7.83;;;6.87;;
15624;SDS011;7912;51.376;6.126;2023-10-19T00:54:17;8.10;;;7.30;;
15624;SDS011;7912;51.376;6.126;2023-10-19T00:57:00;7.77;;;7.00;;
15624;SDS011;7912;51.376;6.126;2023-10-19T00:59:39;7.50;;;6.77;;
15624;SDS011;7912;51.376;6.126;2023-10-19T01:02:14;7.80;;;6.73;;
15624;SDS011;7912;51.376;6.126;2023-10-19T01:04:44;6.83;;;6.00;;
15624;SDS011;7912;51.376;6.126;2023-10-19T01:07:33;7.23;;;6.53;;
15624;SDS011;7912;51.376;6.126;2023-10-19T01:10:05;6.90;;;6.30;;
15624;SDS011;7912;51.376;6.126;2023-10-19T01:12:55;7.00;;;6.30;;
15624;SDS011;7912;51.376;6.126;2023-10-19T01:15:26;6.60;;;5.97;;
15624;SDS011;7912;51.376;6.126;2023-10-19T01:17:56;6.93;;;6.23;;
15624;SDS011;7912;51.376;6.126;2023-10-19T01:20:26;7.70;;;6.63;;
15624;SDS011;7912;51.376;6.126;2023-10-19T01:22:57;6.50;;;5.90;;
15624;SDS011;7912;51.376;6.126;2023-10-19T01:25:55;6.97;;;6.33;;
15624;SDS011;7912;51.376;6.126;2023-10-19T01:28:35;7.27;;;6.63;;
15624;SDS011;7912;51.376;6.126;2023-10-19T01:31:08;7.10;;;6.40;;
15624;SDS011;7912;51.376;6.126;2023-10-19T01:33:58;6.40;;;5.67;;
15624;SDS011;7912;51.376;6.126;2023-10-19T01:36:33;6.10;;;5.50;;
15624;SDS011;7912;51.376;6.126;2023-10-19T01:39:09;6.87;;;6.17;;
15624;SDS011;7912;51.376;6.126;2023-10-19T01:41:38;7.03;;;6.10;;
15624;SDS011;7912;51.376;6.126;2023-10-19T01:44:08;7.03;;;6.33;;
15624;SDS011;7912;51.376;6.126;2023-10-19T01:46:41;6.70;;;6.00;;
15624;SDS011;7912;51.376;6.126;2023-10-19T01:49:12;6.90;;;5.93;;
15624;SDS011;7912;51.376;6.126;2023-10-19T01:51:40;6.60;;;5.90;;
15624;SDS011;7912;51.376;6.126;2023-10-19T01:54:09;7.17;;;6.10;;
15624;SDS011;7912;51.376;6.126;2023-10-19T01:56:38;6.90;;;5.97;;
15624;SDS011;7912;51.376;6.126;2023-10-19T01:59:09;7.63;;;6.83;;
15624;SDS011;7912;51.376;6.126;2023-10-19T02:01:36;5.77;;;5.27;;
15624;SDS011;7912;51.376;6.126;2023-10-19T02:04:05;6.13;;;5.43;;
15624;SDS011;7912;51.376;6.126;2023-10-19T02:06:36;6.97;;;5.60;;
15624;SDS011;7912;51.376;6.126;2023-10-19T02:09:06;8.23;;;5.37;;
15624;SDS011;7912;51.376;6.126;2023-10-19T02:11:45;5.70;;;5.03;;
15624;SDS011;7912;51.376;6.126;2023-10-19T02:14:17;6.23;;;5.63;;
15624;SDS011;7912;51.376;6.126;2023-10-19T02:16:49;6.50;;;5.10;;
15624;SDS011;7912;51.376;6.126;2023-10-19T02:19:21;6.17;;;5.57;;
15624;SDS011;7912;51.376;6.126;2023-10-19T02:21:50;6.00;;;5.50;;
15624;SDS011;7912;51.376;6.126;2023-10-19T02:24:35;5.80;;;5.23;;
15624;SDS011;7912;51.376;6.126;2023-10-19T02:27:02;7.60;;;6.27;;
15624;SDS011;7912;51.376;6.126;2023-10-19T02:29:32;5.83;;;5.33;;
15624;SDS011;7912;51.376;6.126;2023-10-19T02:32:02;6.00;;;5.40;;
15624;SDS011;7912;51.376;6.126;2023-10-19T02:34:30;5.73;;;5.23;;
15624;SDS011;7912;51.376;6.126;2023-10-19T02:36:58;5.97;;;5.37;;
15624;SDS011;7912;51.376;6.126;2023-10-19T02:39:27;6.10;;;5.43;;
15624;SDS011;7912;51.376;6.126;2023-10-19T02:41:55;5.87;;;5.37;;
15624;SDS011;7912;51.376;6.126;2023-10-19T02:44:23;6.00;;;5.33;;
15624;SDS011;7912;51.376;6.126;2023-10-19T02:46:55;4.87;;;4.47;;
15624;SDS011;7912;51.376;6.126;2023-10-19T02:49:27;4.93;;;4.50;;
15624;SDS011;7912;51.376;6.126;2023-10-19T02:51:56;5.40;;;4.90;;
15624;SDS011;7912;51.376;6.126;2023-10-19T02:54:30;4.67;;;4.20;;
15624;SDS011;7912;51.376;6.126;2023-10-19T02:57:00;4.67;;;4.27;;
15624;SDS011;7912;51.376;6.126;2023-10-19T02:59:29;4.37;;;3.70;;
15624;SDS011;7912;51.376;6.126;2023-10-19T03:01:57;3.63;;;3.20;;
15624;SDS011;7912;51.376;6.126;2023-10-19T03:04:44;4.30;;;3.20;;
15624;SDS011;7912;51.376;6.126;2023-10-19T03:07:13;3.03;;;2.40;;
15624;SDS011;7912;51.376;6.126;2023-10-19T03:09:42;5.50;;;2.57;;
15624;SDS011;7912;51.376;6.126;2023-10-19T03:12:18;2.40;;;2.20;;
15624;SDS011;7912;51.376;6.126;2023-10-19T03:14:46;2.20;;;2.00;;
15624;SDS011;7912;51.376;6.126;2023-10-19T03:17:15;2.30;;;1.80;;
15624;SDS011;7912;51.376;6.126;2023-10-19T03:19:43;2.17;;;1.90;;
15624;SDS011;7912;51.376;6.126;2023-10-19T03:22:11;2.43;;;2.23;;
15624;SDS011;7912;51.376;6.126;2023-10-19T03:24:38;2.93;;;2.00;;
15624;SDS011;7912;51.376;6.126;2023-10-19T03:27:12;2.70;;;2.10;;
15624;SDS011;7912;51.376;6.126;2023-10-19T03:29:51;4.07;;;1.87;;
15624;SDS011;7912;51.376;6.126;2023-10-19T03:32:23;1.93;;;1.73;;
15624;SDS011;7912;51.376;6.126;2023-10-19T03:35:01;1.90;;;1.50;;
15624;SDS011;7912;51.376;6.126;2023-10-19T03:37:31;1.80;;;1.60;;
15624;SDS011;7912;51.376;6.126;2023-10-19T03:40:01;2.30;;;1.50;;
15624;SDS011;7912;51.376;6.126;2023-10-19T03:42:33;2.23;;;1.50;;
15624;SDS011;7912;51.376;6.126;2023-10-19T03:45:07;2.37;;;1.50;;
15624;SDS011;7912;51.376;6.126;2023-10-19T03:47:41;1.80;;;1.30;;
15624;SDS011;7912;51.376;6.126;2023-10-19T03:50:11;4.17;;;1.40;;
15624;SDS011;7912;51.376;6.126;2023-10-19T03:52:46;4.30;;;1.73;;
15624;SDS011;7912;51.376;6.126;2023-10-19T03:55:14;2.70;;;1.70;;
15624;SDS011;7912;51.376;6.126;2023-10-19T03:57:45;2.27;;;1.90;;
15624;SDS011;7912;51.376;6.126;2023-10-19T04:00:21;1.30;;;1.20;;
15624;SDS011;7912;51.376;6.126;2023-10-19T04:02:53;2.20;;;1.30;;
15624;SDS011;7912;51.376;6.126;2023-10-19T04:05:22;2.13;;;1.40;;
15624;SDS011;7912;51.376;6.126;2023-10-19T04:07:50;2.23;;;1.53;;
15624;SDS011;7912;51.376;6.126;2023-10-19T04:10:21;3.70;;;1.37;;
15624;SDS011;7912;51.376;6.126;2023-10-19T04:13:01;2.33;;;1.30;;
15624;SDS011;7912;51.376;6.126;2023-10-19T04:15:29;3.00;;;1.43;;
15624;SDS011;7912;51.376;6.126;2023-10-19T04:18:02;2.73;;;1.40;;
15624;SDS011;7912;51.376;6.126;2023-10-19T04:20:41;1.70;;;1.30;;
15624;SDS011;7912;51.376;6.126;2023-10-19T04:23:21;2.63;;;1.03;;
15624;SDS011;7912;51.376;6.126;2023-10-19T04:26:02;3.80;;;1.63;;
15624;SDS011;7912;51.376;6.126;2023-10-19T04:28:40;3.37;;;1.33;;
15624;SDS011;7912;51.376;6.126;2023-10-19T04:31:11;2.10;;;1.20;;
15624;SDS011;7912;51.376;6.126;2023-10-19T04:33:42;2.07;;;1.10;;
15624;SDS011;7912;51.376;6.126;2023-10-19T04:36:14;1.50;;;1.07;;
15624;SDS011;7912;51.376;6.126;2023-10-19T04:38:42;1.33;;;0.90;;
15624;SDS011;7912;51.376;6.126;2023-10-19T04:41:10;1.43;;;1.00;;
15624;SDS011;7912;51.376;6.126;2023-10-19T04:43:38;1.30;;;1.00;;
15624;SDS011;7912;51.376;6.126;2023-10-19T04:46:07;4.33;;;1.20;;
15624;SDS011;7912;51.376;6.126;2023-10-19T04:48:39;4.43;;;1.20;;
15624;SDS011;7912;51.376;6.126;2023-10-19T04:51:07;3.87;;;1.20;;
15624;SDS011;7912;51.376;6.126;2023-10-19T04:53:38;2.07;;;1.30;;
15624;SDS011;7912;51.376;6.126;2023-10-19T04:56:06;4.07;;;1.47;;
15624;SDS011;7912;51.376;6.126;2023-10-19T04:58:39;2.40;;;1.47;;
15624;SDS011;7912;51.376;6.126;2023-10-19T05:01:06;1.80;;;1.00;;
15624;SDS011;7912;51.376;6.126;2023-10-19T05:03:34;2.60;;;1.23;;
15624;SDS011;7912;51.376;6.126;2023-10-19T05:06:02;3.63;;;1.40;;
15624;SDS011;7912;51.376;6.126;2023-10-19T05:08:29;2.97;;;1.20;;
15624;SDS011;7912;51.376;6.126;2023-10-19T05:10:59;3.03;;;1.10;;
15624;SDS011;7912;51.376;6.126;2023-10-19T05:13:27;2.97;;;1.40;;
15624;SDS011;7912;51.376;6.126;2023-10-19T05:15:56;2.60;;;1.40;;
15624;SDS011;7912;51.376;6.126;2023-10-19T05:18:26;3.47;;;1.50;;
15624;SDS011;7912;51.376;6.126;2023-10-19T05:20:53;4.50;;;1.57;;
15624;SDS011;7912;51.376;6.126;2023-10-19T05:23:23;4.37;;;1.47;;
15624;SDS011;7912;51.376;6.126;2023-10-19T05:25:52;1.83;;;1.13;;
15624;SDS011;7912;51.376;6.126;2023-10-19T05:28:30;2.43;;;1.43;;
15624;SDS011;7912;51.376;6.126;2023-10-19T05:30:58;3.67;;;1.37;;
15624;SDS011;7912;51.376;6.126;2023-10-19T05:33:28;3.37;;;1.60;;
15624;SDS011;7912;51.376;6.126;2023-10-19T05:35:59;2.07;;;1.50;;
15624;SDS011;7912;51.376;6.126;2023-10-19T05:38:27;4.10;;;1.30;;
15624;SDS011;7912;51.376;6.126;2023-10-19T05:40:56;2.00;;;1.40;;
15624;SDS011;7912;51.376;6.126;2023-10-19T05:43:25;2.10;;;1.40;;
15624;SDS011;7912;51.376;6.126;2023-10-19T05:45:54;2.53;;;1.50;;
15624;SDS011;7912;51.376;6.126;2023-10-19T05:48:23;4.13;;;1.60;;
15624;SDS011;7912;51.376;6.126;2023-10-19T05:50:50;3.73;;;1.43;;
15624;SDS011;7912;51.376;6.126;2023-10-19T05:53:18;3.63;;;1.57;;
15624;SDS011;7912;51.376;6.126;2023-10-19T05:55:45;1.47;;;1.30;;
15624;SDS011;7912;51.376;6.126;2023-10-19T05:58:12;3.00;;;1.33;;
15624;SDS011;7912;51.376;6.126;2023-10-19T06:00:41;3.33;;;1.50;;
15624;SDS011;7912;51.376;6.126;2023-10-19T06:03:08;2.87;;;1.63;;
15624;SDS011;7912;51.376;6.126;2023-10-19T06:05:36;2.93;;;1.63;;
15624;SDS011;7912;51.376;6.126;2023-10-19T06:08:04;2.70;;;1.40;;
15624;SDS011;7912;51.376;6.126;2023-10-19T06:10:31;2.87;;;1.30;;
15624;SDS011;7912;51.376;6.126;2023-10-19T06:12:59;2.70;;;1.60;;
15624;SDS011;7912;51.376;6.126;2023-10-19T06:15:26;2.60;;;1.97;;
15624;SDS011;7912;51.376;6.126;2023-10-19T06:17:55;2.50;;;1.50;;
15624;SDS011;7912;51.376;6.126;2023-10-19T06:20:23;2.87;;;1.70;;
15624;SDS011;7912;51.376;6.126;2023-10-19T06:22:51;3.23;;;1.30;;
15624;SDS011;7912;51.376;6.126;2023-10-19T06:25:20;3.73;;;1.73;;
15624;SDS011;7912;51.376;6.126;2023-10-19T06:27:50;2.67;;;1.50;;
15624;SDS011;7912;51.376;6.126;2023-10-19T06:30:19;3.60;;;1.83;;
15624;SDS011;7912;51.376;6.126;2023-10-19T06:32:50;4.40;;;1.77;;
15624;SDS011;7912;51.376;6.126;2023-10-19T06:35:24;2.47;;;1.30;;
15624;SDS011;7912;51.376;6.126;2023-10-19T06:37:52;3.73;;;1.83;;
15624;SDS011;7912;51.376;6.126;2023-10-19T06:40:24;2.63;;;1.60;;
15624;SDS011;7912;51.376;6.126;2023-10-19T06:42:55;3.47;;;1.70;;
15624;SDS011;7912;51.376;6.126;2023-10-19T06:45:24;3.27;;;1.60;;
15624;SDS011;7912;51.376;6.126;2023-10-19T06:47:53;1.87;;;1.27;;
15624;SDS011;7912;51.376;6.126;2023-10-19T06:50:21;3.30;;;1.90;;
15624;SDS011;7912;51.376;6.126;2023-10-19T06:52:51;3.43;;;1.47;;
15624;SDS011;7912;51.376;6.126;2023-10-19T06:55:21;3.63;;;1.60;;
15624;SDS011;7912;51.376;6.126;2023-10-19T06:57:52;4.70;;;1.70;;
15624;SDS011;7912;51.376;6.126;2023-10-19T07:00:22;3.63;;;1.70;;
15624;SDS011;7912;51.376;6.126;2023-10-19T07:02:55;5.67;;;2.03;;
15624;SDS011;7912;51.376;6.126;2023-10-19T07:05:24;3.43;;;1.60;;
15624;SDS011;7912;51.376;6.126;2023-10-19T07:07:52;2.50;;;1.60;;
15624;SDS011;7912;51.376;6.126;2023-10-19T07:10:21;5.07;;;1.90;;
15624;SDS011;7912;51.376;6.126;2023-10-19T07:12:54;3.33;;;2.00;;
15624;SDS011;7912;51.376;6.126;2023-10-19T07:15:22;3.80;;;2.10;;
15624;SDS011;7912;51.376;6.126;2023-10-19T07:17:52;3.47;;;2.10;;
15624;SDS011;7912;51.376;6.126;2023-10-19T07:20:21;4.27;;;2.07;;
15624;SDS011;7912;51.376;6.126;2023-10-19T07:22:56;4.67;;;2.40;;
15624;SDS011;7912;51.376;6.126;2023-10-19T07:25:48;3.63;;;2.23;;
15624;SDS011;7912;51.376;6.126;2023-10-19T07:28:26;2.97;;;1.90;;
15624;SDS011;7912;51.376;6.126;2023-10-19T07:30:55;2.57;;;1.80;;
15624;SDS011;7912;51.376;6.126;2023-10-19T07:33:23;2.47;;;1.70;;
15624;SDS011;7912;51.376;6.126;2023-10-19T07:35:51;4.37;;;2.40;;
15624;SDS011;7912;51.376;6.126;2023-10-19T07:38:22;3.20;;;2.00;;
15624;SDS011;7912;51.376;6.126;2023-10-19T07:40:50;3.60;;;2.00;;
15624;SDS011;7912;51.376;6.126;2023-10-19T07:43:21;3.60;;;1.90;;
15624;SDS011;7912;51.376;6.126;2023-10-19T07:45:49;2.87;;;1.70;;
15624;SDS011;7912;51.376;6.126;2023-10-19T07:48:19;4.83;;;1.80;;
15624;SDS011;7912;51.376;6.126;2023-10-19T07:50:46;2.60;;;1.60;;
15624;SDS011;7912;51.376;6.126;2023-10-19T07:53:14;3.63;;;1.70;;
15624;SDS011;7912;51.376;6.126;2023-10-19T07:55:43;3.17;;;1.80;;
15624;SDS011;7912;51.376;6.126;2023-10-19T07:58:11;3.27;;;1.60;;
15624;SDS011;7912;51.376;6.126;2023-10-19T08:00:38;3.70;;;1.50;;
15624;SDS011;7912;51.376;6.126;2023-10-19T08:03:08;3.40;;;1.97;;
15624;SDS011;7912;51.376;6.126;2023-10-19T08:05:40;3.23;;;1.60;;
15624;SDS011;7912;51.376;6.126;2023-10-19T08:08:07;2.93;;;1.20;;
15624;SDS011;7912;51.376;6.126;2023-10-19T08:10:35;2.00;;;1.23;;
15624;SDS011;7912;51.376;6.126;2023-10-19T08:13:03;4.00;;;1.40;;
15624;SDS011;7912;51.376;6.126;2023-10-19T08:15:31;2.90;;;1.50;;
15624;SDS011;7912;51.376;6.126;2023-10-19T08:17:59;5.10;;;1.67;;
15624;SDS011;7912;51.376;6.126;2023-10-19T08:20:26;3.00;;;1.70;;
15624;SDS011;7912;51.376;6.126;2023-10-19T08:23:03;2.67;;;1.60;;
15624;SDS011;7912;51.376;6.126;2023-10-19T08:25:32;4.53;;;1.60;;
15624;SDS011;7912;51.376;6.126;2023-10-19T08:28:20;3.37;;;1.40;;
15624;SDS011;7912;51.376;6.126;2023-10-19T08:30:48;2.40;;;1.37;;
15624;SDS011;7912;51.376;6.126;2023-10-19T08:33:28;2.10;;;1.40;;
15624;SDS011;7912;51.376;6.126;2023-10-19T08:35:56;2.70;;;1.50;;
15624;SDS011;7912;51.376;6.126;2023-10-19T08:38:24;2.57;;;1.37;;
15624;SDS011;7912;51.376;6.126;2023-10-19T08:40:52;1.60;;;1.33;;
15624;SDS011;7912;51.376;6.126;2023-10-19T08:43:21;3.03;;;1.60;;
15624;SDS011;7912;51.376;6.126;2023-10-19T08:45:51;3.73;;;1.93;;
15624;SDS011;7912;51.376;6.126;2023-10-19T08:48:20;4.67;;;2.00;;
15624;SDS011;7912;51.376;6.126;2023-10-19T08:50:47;4.10;;;1.63;;
15624;SDS011;7912;51.376;6.126;2023-10-19T08:53:15;3.93;;;1.77;;
15624;SDS011;7912;51.376;6.126;2023-10-19T08:55:47;3.17;;;1.50;;
15624;SDS011;7912;51.376;6.126;2023-10-19T08:58:17;3.37;;;1.87;;
15624;SDS011;7912;51.376;6.126;2023-10-19T09:00:47;3.30;;;1.80;;
15624;SDS011;7912;51.376;6.126;2023-10-19T09:03:21;4.50;;;1.80;;
15624;SDS011;7912;51.376;6.126;2023-10-19T09:05:53;3.97;;;1.73;;
15624;SDS011;7912;51.376;6.126;2023-10-19T09:08:23;5.27;;;1.87;;
15624;SDS011;7912;51.376;6.126;2023-10-19T09:10:51;5.37;;;1.73;;
15624;SDS011;7912;51.376;6.126;2023-10-19T09:13:21;2.70;;;1.60;;
15624;SDS011;7912;51.376;6.126;2023-10-19T09:15:51;2.40;;;1.70;;
15624;SDS011;7912;51.376;6.126;2023-10-19T09:18:23;4.67;;;1.53;;
15624;SDS011;7912;51.376;6.126;2023-10-19T09:20:55;4.20;;;1.83;;
15624;SDS011;7912;51.376;6.126;2023-10-19T09:23:34;5.50;;;1.87;;
15624;SDS011;7912;51.376;6.126;2023-10-19T09:26:06;4.53;;;1.77;;
15624;SDS011;7912;51.376;6.126;2023-10-19T09:28:34;5.23;;;1.93;;
15624;SDS011;7912;51.376;6.126;2023-10-19T09:31:05;5.30;;;1.60;;
15624;SDS011;7912;51.376;6.126;2023-10-19T09:33:36;4.17;;;1.90;;
15624;SDS011;7912;51.376;6.126;2023-10-19T09:36:08;6.23;;;1.57;;
15624;SDS011;7912;51.376;6.126;2023-10-19T09:38:47;4.20;;;1.80;;
15624;SDS011;7912;51.376;6.126;2023-10-19T09:41:19;4.83;;;1.80;;
15624;SDS011;7912;51.376;6.126;2023-10-19T09:43:49;5.07;;;1.70;;
15624;SDS011;7912;51.376;6.126;2023-10-19T09:46:22;3.70;;;1.70;;
15624;SDS011;7912;51.376;6.126;2023-10-19T09:48:58;4.93;;;1.87;;
15624;SDS011;7912;51.376;6.126;2023-10-19T09:51:27;4.43;;;1.70;;
15624;SDS011;7912;51.376;6.126;2023-10-19T09:53:57;3.83;;;1.50;;
15624;SDS011;7912;51.376;6.126;2023-10-19T09:57:02;6.00;;;2.00;;
15624;SDS011;7912;51.376;6.126;2023-10-19T09:59:44;6.27;;;1.93;;
15624;SDS011;7912;51.376;6.126;2023-10-19T10:02:21;5.10;;;1.80;;
15624;SDS011;7912;51.376;6.126;2023-10-19T10:04:52;3.57;;;1.70;;
15624;SDS011;7912;51.376;6.126;2023-10-19T10:07:20;3.47;;;1.93;;
15624;SDS011;7912;51.376;6.126;2023-10-19T10:10:06;3.10;;;1.80;;
15624;SDS011;7912;51.376;6.126;2023-10-19T10:12:35;5.43;;;2.03;;
15624;SDS011;7912;51.376;6.126;2023-10-19T10:15:03;3.47;;;1.50;;
15624;SDS011;7912;51.376;6.126;2023-10-19T10:17:36;4.27;;;1.77;;
15624;SDS011;7912;51.376;6.126;2023-10-19T10:22:40;4.20;;;1.77;;
15624;SDS011;7912;51.376;6.126;2023-10-19T10:25:08;5.60;;;2.30;;
15624;SDS011;7912;51.376;6.126;2023-10-19T10:27:56;5.03;;;1.57;;
15624;SDS011;7912;51.376;6.126;2023-10-19T10:30:24;3.60;;;1.50;;
15624;SDS011;7912;51.376;6.126;2023-10-19T10:32:53;4.57;;;1.93;;
15624;SDS011;7912;51.376;6.126;2023-10-19T10:38:06;4.27;;;1.50;;
15624;SDS011;7912;51.376;6.126;2023-10-19T10:40:46;5.27;;;1.90;;
15624;SDS011;7912;51.376;6.126;2023-10-19T10:43:16;5.40;;;1.93;;
15624;SDS011;7912;51.376;6.126;2023-10-19T10:45:45;5.63;;;2.00;;
15624;SDS011;7912;51.376;6.126;2023-10-19T10:48:13;4.33;;;1.67;;
15624;SDS011;7912;51.376;6.126;2023-10-19T10:50:41;3.63;;;1.50;;
15624;SDS011;7912;51.376;6.126;2023-10-19T10:53:10;3.97;;;1.70;;
15624;SDS011;7912;51.376;6.126;2023-10-19T10:55:38;5.13;;;1.90;;
15624;SDS011;7912;51.376;6.126;2023-10-19T10:58:06;5.07;;;1.80;;
15624;SDS011;7912;51.376;6.126;2023-10-19T11:00:33;5.30;;;1.90;;
15624;SDS011;7912;51.376;6.126;2023-10-19T11:03:08;5.17;;;2.13;;
15624;SDS011;7912;51.376;6.126;2023-10-19T11:05:37;5.07;;;2.00;;
15624;SDS011;7912;51.376;6.126;2023-10-19T11:08:05;4.10;;;1.83;;
15624;SDS011;7912;51.376;6.126;2023-10-19T11:10:43;6.13;;;2.00;;
15624;SDS011;7912;51.376;6.126;2023-10-19T11:13:16;3.17;;;1.70;;
15624;SDS011;7912;51.376;6.126;2023-10-19T11:15:54;5.57;;;2.30;;
15624;SDS011;7912;51.376;6.126;2023-10-19T11:20:57;3.93;;;1.77;;
15624;SDS011;7912;51.376;6.126;2023-10-19T11:23:40;7.20;;;2.20;;
15624;SDS011;7912;51.376;6.126;2023-10-19T11:26:10;6.03;;;1.80;;
15624;SDS011;7912;51.376;6.126;2023-10-19T11:28:40;4.33;;;1.87;;
15624;SDS011;7912;51.376;6.126;2023-10-19T11:31:18;5.73;;;2.20;;
15624;SDS011;7912;51.376;6.126;2023-10-19T11:33:51;3.67;;;1.77;;
15624;SDS011;7912;51.376;6.126;2023-10-19T11:36:22;4.90;;;2.00;;
15624;SDS011;7912;51.376;6.126;2023-10-19T11:38:51;3.03;;;1.80;;
15624;SDS011;7912;51.376;6.126;2023-10-19T11:41:20;5.53;;;2.27;;
15624;SDS011;7912;51.376;6.126;2023-10-19T11:43:48;3.60;;;1.83;;
15624;SDS011;7912;51.376;6.126;2023-10-19T11:46:16;3.97;;;2.00;;
15624;SDS011;7912;51.376;6.126;2023-10-19T11:48:52;4.73;;;1.70;;
15624;SDS011;7912;51.376;6.126;2023-10-19T11:51:19;4.37;;;1.80;;
15624;SDS011;7912;51.376;6.126;2023-10-19T11:53:47;2.57;;;1.43;;
15624;SDS011;7912;51.376;6.126;2023-10-19T11:56:14;5.60;;;1.73;;
15624;SDS011;7912;51.376;6.126;2023-10-19T11:58:43;3.83;;;1.77;;
15624;SDS011;7912;51.376;6.126;2023-10-19T12:01:14;3.37;;;1.90;;
15624;SDS011;7912;51.376;6.126;2023-10-19T12:03:44;3.27;;;1.90;;
15624;SDS011;7912;51.376;6.126;2023-10-19T12:06:13;5.07;;;1.87;;
15624;SDS011;7912;51.376;6.126;2023-10-19T12:08:46;3.17;;;1.50;;
15624;SDS011;7912;51.376;6.126;2023-10-19T12:11:14;4.27;;;1.80;;
15624;SDS011;7912;51.376;6.126;2023-10-19T12:13:42;5.47;;;2.20;;
15624;SDS011;7912;51.376;6.126;2023-10-19T12:16:11;4.80;;;1.60;;
15624;SDS011;7912;51.376;6.126;2023-10-19T12:18:46;6.13;;;2.00;;
15624;SDS011;7912;51.376;6.126;2023-10-19T12:21:17;3.70;;;1.80;;
15624;SDS011;7912;51.376;6.126;2023-10-19T12:23:45;5.07;;;1.80;;
15624;SDS011;7912;51.376;6.126;2023-10-19T12:26:21;4.63;;;2.07;;
15624;SDS011;7912;51.376;6.126;2023-10-19T12:28:50;6.93;;;1.87;;
15624;SDS011;7912;51.376;6.126;2023-10-19T12:31:17;4.10;;;1.97;;
15624;SDS011;7912;51.376;6.126;2023-10-19T12:33:46;4.70;;;2.00;;
15624;SDS011;7912;51.376;6.126;2023-10-19T12:36:13;4.43;;;1.80;;
15624;SDS011;7912;51.376;6.126;2023-10-19T12:38:46;3.60;;;1.93;;
15624;SDS011;7912;51.376;6.126;2023-10-19T12:41:13;4.80;;;2.00;;
15624;SDS011;7912;51.376;6.126;2023-10-19T12:43:43;4.20;;;1.90;;
15624;SDS011;7912;51.376;6.126;2023-10-19T12:46:13;4.73;;;2.13;;
15624;SDS011;7912;51.376;6.126;2023-10-19T12:48:42;4.90;;;2.17;;
15624;SDS011;7912;51.376;6.126;2023-10-19T12:51:10;5.53;;;1.80;;
15624;SDS011;7912;51.376;6.126;2023-10-19T12:53:41;4.00;;;1.80;;
15624;SDS011;7912;51.376;6.126;2023-10-19T12:56:08;6.57;;;2.20;;
15624;SDS011;7912;51.376;6.126;2023-10-19T12:58:37;6.10;;;2.40;;
15624;SDS011;7912;51.376;6.126;2023-10-19T13:01:05;4.33;;;2.13;;
15624;SDS011;7912;51.376;6.126;2023-10-19T13:03:32;4.80;;;2.17;;
15624;SDS011;7912;51.376;6.126;2023-10-19T13:06:05;4.77;;;2.37;;
15624;SDS011;7912;51.376;6.126;2023-10-19T13:08:33;7.07;;;2.40;;
15624;SDS011;7912;51.376;6.126;2023-10-19T13:11:01;6.10;;;2.50;;
15624;SDS011;7912;51.376;6.126;2023-10-19T13:13:42;5.40;;;2.40;;
15624;SDS011;7912;51.376;6.126;2023-10-19T13:16:10;5.73;;;2.37;;
15624;SDS011;7912;51.376;6.126;2023-10-19T13:18:37;6.00;;;2.70;;
15624;SDS011;7912;51.376;6.126;2023-10-19T13:21:07;5.17;;;2.20;;
15624;SDS011;7912;51.376;6.126;2023-10-19T13:23:38;6.73;;;3.47;;
15624;SDS011;7912;51.376;6.126;2023-10-19T13:26:05;5.03;;;2.90;;
15624;SDS011;7912;51.376;6.126;2023-10-19T13:28:33;5.07;;;2.90;;
15624;SDS011;7912;51.376;6.126;2023-10-19T13:31:05;6.63;;;3.13;;
15624;SDS011;7912;51.376;6.126;2023-10-19T13:33:36;6.77;;;2.80;;
15624;SDS011;7912;51.376;6.126;2023-10-19T13:36:04;7.33;;;2.90;;
15624;SDS011;7912;51.376;6.126;2023-10-19T13:38:32;4.10;;;2.67;;
15624;SDS011;7912;51.376;6.126;2023-10-19T13:41:03;5.40;;;2.60;;
15624;SDS011;7912;51.376;6.126;2023-10-19T13:43:37;7.20;;;2.93;;
15624;SDS011;7912;51.376;6.126;2023-10-19T13:46:09;8.03;;;3.00;;
15624;SDS011;7912;51.376;6.126;2023-10-19T13:48:36;7.73;;;3.07;;
15624;SDS011;7912;51.376;6.126;2023-10-19T13:51:06;6.87;;;3.00;;
15624;SDS011;7912;51.376;6.126;2023-10-19T13:53:41;9.07;;;3.10;;
15624;SDS011;7912;51.376;6.126;2023-10-19T13:56:12;6.97;;;2.97;;
15624;SDS011;7912;51.376;6.126;2023-10-19T13:58:41;6.80;;;2.97;;
15624;SDS011;7912;51.376;6.126;2023-10-19T14:01:09;6.60;;;2.90;;
15624;SDS011;7912;51.376;6.126;2023-10-19T14:03:41;6.27;;;3.03;;
15624;SDS011;7912;51.376;6.126;2023-10-19T14:06:14;7.03;;;3.10;;
15624;SDS011;7912;51.376;6.126;2023-10-19T14:08:43;5.37;;;3.07;;
15624;SDS011;7912;51.376;6.126;2023-10-19T14:11:10;4.30;;;3.20;;
15624;SDS011;7912;51.376;6.126;2023-10-19T14:13:39;4.97;;;2.97;;
15624;SDS011;7912;51.376;6.126;2023-10-19T14:16:09;6.87;;;3.23;;
15624;SDS011;7912;51.376;6.126;2023-10-19T14:18:37;5.07;;;3.30;;
15624;SDS011;7912;51.376;6.126;2023-10-19T14:21:16;6.57;;;2.93;;
15624;SDS011;7912;51.376;6.126;2023-10-19T14:23:45;5.73;;;4.17;;
15624;SDS011;7912;51.376;6.126;2023-10-19T14:26:14;6.80;;;4.00;;
15624;SDS011;7912;51.376;6.126;2023-10-19T14:28:42;6.77;;;3.40;;
15624;SDS011;7912;51.376;6.126;2023-10-19T14:31:09;4.87;;;3.20;;
15624;SDS011;7912;51.376;6.126;2023-10-19T14:33:38;7.13;;;3.20;;
15624;SDS011;7912;51.376;6.126;2023-10-19T14:36:06;6.37;;;3.23;;
15624;SDS011;7912;51.376;6.126;2023-10-19T14:38:35;3.77;;;2.63;;
15624;SDS011;7912;51.376;6.126;2023-10-19T14:41:05;5.67;;;2.70;;
15624;SDS011;7912;51.376;6.126;2023-10-19T14:43:32;5.67;;;3.00;;
15624;SDS011;7912;51.376;6.126;2023-10-19T14:46:00;4.57;;;2.80;;
15624;SDS011;7912;51.376;6.126;2023-10-19T14:48:28;5.50;;;2.80;;
15624;SDS011;7912;51.376;6.126;2023-10-19T14:50:58;6.80;;;2.70;;
15624;SDS011;7912;51.376;6.126;2023-10-19T14:53:26;5.73;;;3.00;;
15624;SDS011;7912;51.376;6.126;2023-10-19T14:55:54;6.30;;;2.90;;
15624;SDS011;7912;51.376;6.126;2023-10-19T14:58:23;11.17;;;5.67;;
15624;SDS011;7912;51.376;6.126;2023-10-19T15:00:56;6.27;;;3.43;;
15624;SDS011;7912;51.376;6.126;2023-10-19T15:03:23;6.20;;;3.20;;
15624;SDS011;7912;51.376;6.126;2023-10-19T15:05:51;5.83;;;3.20;;
15624;SDS011;7912;51.376;6.126;2023-10-19T15:08:20;5.17;;;2.63;;
15624;SDS011;7912;51.376;6.126;2023-10-19T15:10:50;5.40;;;2.77;;
15624;SDS011;7912;51.376;6.126;2023-10-19T15:13:21;5.90;;;2.73;;
15624;SDS011;7912;51.376;6.126;2023-10-19T15:15:48;4.17;;;2.57;;
15624;SDS011;7912;51.376;6.126;2023-10-19T15:18:16;5.90;;;3.07;;
15624;SDS011;7912;51.376;6.126;2023-10-19T15:20:44;7.40;;;2.60;;
15624;SDS011;7912;51.376;6.126;2023-10-19T15:23:12;5.20;;;2.57;;
15624;SDS011;7912;51.376;6.126;2023-10-19T15:25:40;6.50;;;2.37;;
15624;SDS011;7912;51.376;6.126;2023-10-19T15:28:07;5.63;;;2.60;;
15624;SDS011;7912;51.376;6.126;2023-10-19T15:30:36;4.00;;;2.37;;